Time;durP1;ratioP1;P1;durP2;ratioP2;P2;SDS_P1;SDS_P2;PMS_P1;PMS_P2;Temp;Humidity;BMP_temperature;BMP_pressure;BME280_temperature;BME280_humidity;BME280_pressure;Samples;Min_cycle;Max_cycle;Signal;HPM_P1;HPM_P2
2021/07/10 00:02:22;;;;;;;18.95;16.88;;;16.30;99.90;;;;;;5046454;28;20208;-83
2021/07/10 00:04:49;;;;;;;20.20;15.07;;;16.20;99.90;;;;;;5045421;28;20253;-82
2021/07/10 00:07:16;;;;;;;19.73;15.55;;;16.20;99.90;;;;;;5037270;28;20204;-82
2021/07/10 00:09:44;;;;;;;19.58;16.45;;;16.10;99.90;;;;;;5051671;28;20235;-82
2021/07/10 00:12:11;;;;;;;16.13;14.00;;;16.10;99.90;;;;;;5042204;28;20489;-81
2021/07/10 00:14:39;;;;;;;16.45;14.13;;;16.10;99.90;;;;;;5053058;28;20236;-82
2021/07/10 00:17:06;;;;;;;16.50;14.32;;;16.10;99.90;;;;;;5043340;28;20211;-82
2021/07/10 00:19:34;;;;;;;15.65;12.85;;;16.10;99.90;;;;;;5064015;28;20664;-82
2021/07/10 00:22:01;;;;;;;19.50;15.63;;;16.00;99.90;;;;;;5050976;28;20216;-81
2021/07/10 00:24:31;;;;;;;17.27;13.32;;;16.10;99.90;;;;;;5040729;28;20223;-83
2021/07/10 00:26:58;;;;;;;14.90;13.23;;;16.00;99.90;;;;;;5046169;28;20208;-83
2021/07/10 00:29:25;;;;;;;15.82;12.85;;;16.10;99.90;;;;;;5043225;28;20221;-82
2021/07/10 00:31:54;;;;;;;14.07;12.57;;;16.10;99.90;;;;;;5052880;28;20209;-81
2021/07/10 00:34:21;;;;;;;13.52;12.13;;;16.10;99.90;;;;;;5041749;28;20231;-79
2021/07/10 00:36:48;;;;;;;15.30;13.30;;;16.10;99.90;;;;;;5043039;28;20219;-82
2021/07/10 00:39:16;;;;;;;14.90;11.82;;;16.10;99.90;;;;;;5034512;28;20214;-81
2021/07/10 00:41:43;;;;;;;18.98;14.45;;;16.10;99.90;;;;;;5037719;28;20213;-82
2021/07/10 00:44:10;;;;;;;15.82;12.18;;;16.10;99.90;;;;;;5037442;28;20220;-82
2021/07/10 00:46:37;;;;;;;16.45;13.50;;;16.00;99.90;;;;;;5036103;28;20200;-82
2021/07/10 00:49:06;;;;;;;12.93;11.18;;;16.00;99.90;;;;;;5045343;28;20224;-82
2021/07/10 00:51:33;;;;;;;14.48;13.00;;;16.00;99.90;;;;;;5035953;28;20208;-79
2021/07/10 00:54:00;;;;;;;15.45;12.57;;;16.00;99.90;;;;;;5037367;28;20234;-83
2021/07/10 00:56:27;;;;;;;14.18;12.10;;;16.00;99.90;;;;;;5032442;28;20224;-83
2021/07/10 00:58:55;;;;;;;14.57;13.02;;;16.00;99.90;;;;;;5044459;28;20200;-83
2021/07/10 01:01:23;;;;;;;13.82;12.38;;;15.90;99.90;;;;;;5044860;28;20188;-83
2021/07/10 01:03:50;;;;;;;15.35;13.50;;;15.90;99.90;;;;;;5033752;28;20586;-83
2021/07/10 01:06:18;;;;;;;17.40;12.80;;;15.90;99.90;;;;;;5044229;28;20224;-83
2021/07/10 01:08:47;;;;;;;14.75;12.20;;;15.90;99.90;;;;;;5045005;28;20230;-82
2021/07/10 01:11:15;;;;;;;15.38;13.68;;;15.90;99.90;;;;;;5037203;28;20231;-81
2021/07/10 01:13:43;;;;;;;16.20;13.93;;;15.90;99.90;;;;;;5052430;28;20220;-81
2021/07/10 01:16:10;;;;;;;15.10;12.02;;;15.90;99.90;;;;;;5044289;28;20204;-82
2021/07/10 01:18:37;;;;;;;15.35;12.05;;;15.90;99.90;;;;;;5039556;28;20585;-81
2021/07/10 01:21:05;;;;;;;13.88;12.45;;;15.90;99.90;;;;;;5045442;28;20203;-84
2021/07/10 01:23:33;;;;;;;15.80;13.90;;;15.80;99.90;;;;;;5037030;28;20230;-83
2021/07/10 01:26:00;;;;;;;18.15;12.10;;;15.80;99.90;;;;;;5045617;28;20560;-83
2021/07/10 01:28:27;;;;;;;15.70;13.10;;;15.80;99.90;;;;;;5031480;28;20213;-82
2021/07/10 01:30:55;;;;;;;16.45;14.50;;;15.90;99.90;;;;;;5051359;28;20233;-79
2021/07/10 01:33:22;;;;;;;14.80;13.20;;;15.80;99.90;;;;;;5037687;28;20248;-81
2021/07/10 01:35:49;;;;;;;20.80;14.40;;;15.80;99.90;;;;;;5051178;28;20195;-80
2021/07/10 01:38:18;;;;;;;15.27;13.25;;;15.80;99.90;;;;;;5047653;28;20210;-80
2021/07/10 01:40:46;;;;;;;17.17;13.00;;;15.60;99.90;;;;;;5059143;28;20192;-79
2021/07/10 01:43:13;;;;;;;18.17;12.65;;;15.70;99.90;;;;;;5053989;28;20239;-79
2021/07/10 01:45:42;;;;;;;15.98;14.30;;;15.60;99.90;;;;;;5043598;28;20194;-83
2021/07/10 01:48:12;;;;;;;15.25;12.90;;;15.60;99.90;;;;;;5060661;28;20391;-84
2021/07/10 01:50:40;;;;;;;14.13;12.30;;;15.60;99.90;;;;;;5046235;28;20281;-82
2021/07/10 01:53:07;;;;;;;17.20;13.32;;;15.40;99.90;;;;;;5051579;28;20307;-82
2021/07/10 01:55:36;;;;;;;17.15;13.77;;;15.60;99.90;;;;;;5040029;28;20218;-80
2021/07/10 01:58:03;;;;;;;15.02;13.10;;;15.60;99.90;;;;;;5041803;28;20212;-83
2021/07/10 02:00:32;;;;;;;18.83;14.43;;;15.60;99.90;;;;;;5043673;28;20207;-82
2021/07/10 02:03:01;;;;;;;19.52;13.85;;;15.60;99.90;;;;;;5030918;28;20231;-83
2021/07/10 02:05:29;;;;;;;16.50;14.15;;;15.60;99.90;;;;;;5042259;28;20204;-83
2021/07/10 02:07:58;;;;;;;16.25;13.55;;;15.50;99.90;;;;;;5043374;28;20664;-81
2021/07/10 02:10:26;;;;;;;16.08;13.45;;;15.50;99.90;;;;;;5042496;28;20595;-80
2021/07/10 02:12:57;;;;;;;18.63;14.40;;;15.50;99.90;;;;;;5033170;28;20205;-82
2021/07/10 02:15:25;;;;;;;15.63;12.98;;;15.50;99.90;;;;;;5035400;28;20209;-82
2021/07/10 02:17:53;;;;;;;17.88;15.55;;;15.50;99.90;;;;;;5038498;28;20204;-82
2021/07/10 02:20:22;;;;;;;20.33;14.05;;;15.50;99.90;;;;;;5041633;28;20187;-82
2021/07/10 02:22:50;;;;;;;15.98;13.25;;;15.50;99.90;;;;;;5055339;28;20292;-80
2021/07/10 02:25:19;;;;;;;16.98;14.27;;;15.40;99.90;;;;;;5034676;28;20205;-83
2021/07/10 02:27:46;;;;;;;16.90;15.07;;;15.50;99.90;;;;;;5032427;28;20209;-83
2021/07/10 02:30:17;;;;;;;16.65;13.85;;;15.40;99.90;;;;;;5044102;28;20220;-83
2021/07/10 02:32:47;;;;;;;15.88;13.35;;;15.40;99.90;;;;;;5037698;28;20710;-82
2021/07/10 02:35:15;;;;;;;15.10;13.52;;;15.50;99.90;;;;;;5057777;28;20226;-82
2021/07/10 02:37:42;;;;;;;18.63;15.75;;;15.50;99.90;;;;;;5048420;28;20200;-82
2021/07/10 02:40:11;;;;;;;17.50;12.85;;;15.50;99.90;;;;;;5038875;28;20197;-82
2021/07/10 02:42:38;;;;;;;15.23;13.30;;;15.50;99.90;;;;;;5033853;28;20211;-81
2021/07/10 02:45:08;;;;;;;19.45;15.52;;;15.40;99.90;;;;;;5046221;28;20593;-82
2021/07/10 02:47:36;;;;;;;20.58;14.52;;;15.40;99.90;;;;;;5039083;28;20238;-82
2021/07/10 02:50:06;;;;;;;16.58;14.77;;;15.40;99.90;;;;;;5040838;28;20225;-82
2021/07/10 02:52:33;;;;;;;18.10;15.05;;;15.40;99.90;;;;;;5052030;28;20914;-83
2021/07/10 02:55:00;;;;;;;17.95;15.55;;;15.30;99.90;;;;;;5037203;28;20228;-81
2021/07/10 02:57:27;;;;;;;17.90;14.63;;;15.30;99.90;;;;;;5038020;28;20210;-81
2021/07/10 02:59:54;;;;;;;21.73;14.98;;;15.30;99.90;;;;;;5050532;28;20184;-80
2021/07/10 03:02:21;;;;;;;19.33;16.10;;;15.30;99.90;;;;;;5046411;28;20193;-80
2021/07/10 03:04:50;;;;;;;20.15;14.98;;;15.30;99.90;;;;;;5052186;28;20219;-80
2021/07/10 03:07:17;;;;;;;19.13;16.48;;;15.30;99.90;;;;;;5054976;28;20190;-79
2021/07/10 03:09:44;;;;;;;19.08;14.75;;;15.30;99.90;;;;;;5051270;28;20216;-79
2021/07/10 03:12:11;;;;;;;19.60;14.60;;;15.30;99.90;;;;;;5050770;28;20314;-80
2021/07/10 03:14:38;;;;;;;21.13;14.00;;;15.30;99.90;;;;;;5060087;28;20212;-79
2021/07/10 03:17:06;;;;;;;17.20;14.70;;;15.20;99.90;;;;;;5054504;28;20183;-79
2021/07/10 03:19:33;;;;;;;18.70;15.32;;;15.20;99.90;;;;;;5071825;28;20198;-80
2021/07/10 03:22:01;;;;;;;17.60;14.27;;;15.20;99.90;;;;;;5075030;28;20219;-80
2021/07/10 03:24:28;;;;;;;18.67;14.45;;;15.20;99.90;;;;;;5071049;28;20259;-78
2021/07/10 03:26:55;;;;;;;20.65;15.45;;;15.30;99.90;;;;;;5059475;28;20185;-80
2021/07/10 03:29:22;;;;;;;22.15;15.40;;;15.30;99.90;;;;;;5047557;28;20206;-82
2021/07/10 03:31:49;;;;;;;20.73;16.63;;;15.20;99.90;;;;;;5058791;28;20214;-80
2021/07/10 03:34:17;;;;;;;21.70;17.02;;;15.20;99.90;;;;;;5059467;28;20211;-79
2021/07/10 03:36:44;;;;;;;22.30;15.95;;;15.10;99.90;;;;;;5058644;28;20212;-81
2021/07/10 03:39:12;;;;;;;19.23;15.52;;;15.00;99.90;;;;;;5048122;28;20177;-81
2021/07/10 03:41:39;;;;;;;18.73;15.35;;;15.00;99.90;;;;;;5044740;28;20208;-80
2021/07/10 03:44:07;;;;;;;22.58;16.13;;;15.10;99.90;;;;;;5057424;28;20223;-81
2021/07/10 03:46:34;;;;;;;22.95;16.48;;;15.00;99.90;;;;;;5037078;28;20216;-82
2021/07/10 03:49:01;;;;;;;21.10;17.20;;;15.00;99.90;;;;;;5045039;28;20198;-82
2021/07/10 03:51:28;;;;;;;19.55;15.85;;;14.90;99.90;;;;;;5043431;28;20259;-81
2021/07/10 03:53:55;;;;;;;17.33;15.40;;;14.90;99.90;;;;;;5048305;28;20639;-81
2021/07/10 03:56:24;;;;;;;19.85;16.83;;;14.90;99.90;;;;;;5042232;28;20235;-81
2021/07/10 03:58:51;;;;;;;19.67;17.42;;;15.00;99.90;;;;;;5040842;28;20201;-82
2021/07/10 04:01:18;;;;;;;24.67;19.50;;;15.00;99.90;;;;;;5036444;28;20201;-83
2021/07/10 04:03:45;;;;;;;21.08;16.92;;;15.00;99.90;;;;;;5046596;28;20235;-82
2021/07/10 04:06:12;;;;;;;22.08;17.00;;;15.00;99.90;;;;;;5033960;28;20196;-83
2021/07/10 04:08:40;;;;;;;22.63;17.92;;;15.00;99.90;;;;;;5055620;28;20222;-83
2021/07/10 04:11:10;;;;;;;21.67;18.33;;;15.00;99.90;;;;;;5049449;28;20227;-83
2021/07/10 04:13:38;;;;;;;24.35;19.08;;;15.20;99.90;;;;;;5046202;28;20291;-83
2021/07/10 04:16:06;;;;;;;23.92;18.80;;;15.20;99.90;;;;;;5044524;28;20200;-82
2021/07/10 04:18:33;;;;;;;22.33;18.42;;;15.60;99.90;;;;;;5041071;28;20208;-83
2021/07/10 04:21:00;;;;;;;19.92;16.45;;;16.10;99.90;;;;;;5041640;28;20216;-82
2021/07/10 04:23:27;;;;;;;18.90;16.88;;;16.70;99.90;;;;;;5043035;28;20229;-82
2021/07/10 04:25:54;;;;;;;21.13;17.40;;;17.30;99.90;;;;;;5051088;28;20206;-80
2021/07/10 04:28:21;;;;;;;20.17;16.38;;;17.60;99.90;;;;;;5046975;28;20226;-83
2021/07/10 04:30:50;;;;;;;20.55;16.25;;;17.80;99.90;;;;;;5044220;28;20216;-80
2021/07/10 04:33:17;;;;;;;17.13;14.63;;;18.10;99.90;;;;;;5053549;28;20251;-81
2021/07/10 04:35:44;;;;;;;15.73;14.03;;;18.40;99.90;;;;;;5044112;28;20451;-81
2021/07/10 04:38:12;;;;;;;18.40;14.93;;;18.80;99.90;;;;;;5033956;28;20456;-81
2021/07/10 04:40:39;;;;;;;17.60;14.43;;;19.30;99.90;;;;;;5042902;28;20442;-82
2021/07/10 04:43:06;;;;;;;18.00;15.70;;;19.70;99.90;;;;;;5037398;28;20462;-81
2021/07/10 04:45:33;;;;;;;18.63;15.07;;;20.20;99.90;;;;;;5039829;28;20502;-82
2021/07/10 04:48:01;;;;;;;16.87;13.93;;;20.60;99.90;;;;;;5044999;28;20455;-83
2021/07/10 04:50:28;;;;;;;15.70;14.00;;;20.90;99.90;;;;;;5035485;28;20488;-83
2021/07/10 04:52:55;;;;;;;16.63;14.87;;;21.10;99.90;;;;;;5034394;28;20443;-84
2021/07/10 04:55:22;;;;;;;19.43;15.97;;;21.20;99.90;;;;;;5053247;28;20451;-83
2021/07/10 04:57:50;;;;;;;19.30;15.37;;;21.40;99.90;;;;;;5045729;28;20459;-83
2021/07/10 05:00:20;;;;;;;16.03;14.30;;;21.80;99.90;;;;;;5045728;28;20472;-82
2021/07/10 05:02:47;;;;;;;14.60;13.07;;;22.20;99.90;;;;;;5042020;28;20870;-82
2021/07/10 05:05:15;;;;;;;20.40;14.00;;;22.50;99.90;;;;;;5039854;28;20717;-82
2021/07/10 05:07:43;;;;;;;15.90;14.10;;;22.90;99.10;;;;;;5046664;28;20460;-81
2021/07/10 05:10:11;;;;;;;16.77;15.00;;;23.30;98.20;;;;;;5039722;28;20482;-83
2021/07/10 05:12:38;;;;;;;14.93;13.30;;;23.60;97.50;;;;;;5047879;28;20690;-83
2021/07/10 05:15:06;;;;;;;21.73;14.80;;;23.90;96.70;;;;;;5044015;28;20518;-82
2021/07/10 05:17:33;;;;;;;15.53;13.77;;;24.10;95.90;;;;;;5039910;28;20463;-83
2021/07/10 05:20:09;;;;;;;16.93;15.33;;;24.60;95.40;;;;;;5040587;28;20447;-83
2021/07/10 05:22:38;;;;;;;14.63;13.13;;;24.70;94.50;;;;;;5037504;28;20458;-84
2021/07/10 05:25:10;;;;;;;17.23;14.00;;;24.70;94.10;;;;;;5034675;28;20981;-84
2021/07/10 05:27:37;;;;;;;18.20;13.07;;;24.80;94.00;;;;;;5045946;28;20912;-83
2021/07/10 05:30:08;;;;;;;14.73;13.20;;;24.90;93.90;;;;;;5063893;28;20423;-82
2021/07/10 05:32:35;;;;;;;13.87;12.43;;;25.30;93.40;;;;;;5051630;28;20439;-82
2021/07/10 05:35:03;;;;;;;16.17;14.17;;;25.60;92.80;;;;;;5047722;28;20478;-83
2021/07/10 05:37:31;;;;;;;13.43;12.13;;;25.90;92.40;;;;;;5038319;28;20533;-83
2021/07/10 05:39:59;;;;;;;13.73;12.33;;;26.20;91.60;;;;;;5038801;28;20431;-83
2021/07/10 05:42:26;;;;;;;13.73;11.63;;;26.30;91.00;;;;;;5044145;28;20443;-83
2021/07/10 05:44:54;;;;;;;12.23;10.80;;;26.40;90.80;;;;;;5045856;28;20462;-83
2021/07/10 05:47:21;;;;;;;13.30;11.97;;;26.50;90.80;;;;;;5036404;28;20476;-83
2021/07/10 05:49:48;;;;;;;12.40;11.10;;;26.80;90.20;;;;;;5037348;28;20423;-83
2021/07/10 05:52:16;;;;;;;11.30;10.20;;;27.00;90.00;;;;;;5049513;28;20555;-82
2021/07/10 05:54:43;;;;;;;11.47;10.27;;;27.30;89.50;;;;;;5055232;28;20458;-83
2021/07/10 05:57:12;;;;;;;13.57;10.47;;;27.60;87.30;;;;;;5048312;28;20439;-84
2021/07/10 05:59:40;;;;;;;12.10;10.40;;;27.50;87.50;;;;;;5046678;28;20465;-84
2021/07/10 06:02:07;;;;;;;10.37;8.13;;;27.80;87.10;;;;;;5042989;28;20435;-83
2021/07/10 06:04:35;;;;;;;10.07;9.17;;;28.30;86.10;;;;;;5041898;28;20471;-83
2021/07/10 06:07:02;;;;;;;9.23;8.43;;;28.40;84.10;;;;;;5051051;28;20455;-82
2021/07/10 06:09:30;;;;;;;9.60;8.70;;;28.30;84.60;;;;;;5046941;28;20442;-84
2021/07/10 06:11:57;;;;;;;13.53;9.70;;;28.60;84.20;;;;;;5051641;28;20538;-83
2021/07/10 06:14:26;;;;;;;10.33;8.57;;;28.50;83.70;;;;;;5049731;28;20479;-83
2021/07/10 06:16:54;;;;;;;9.93;8.80;;;28.80;83.50;;;;;;5050043;28;20477;-82
2021/07/10 06:19:21;;;;;;;9.77;8.63;;;28.50;83.10;;;;;;5059529;28;20506;-82
2021/07/10 06:21:52;;;;;;;8.40;7.60;;;28.80;83.00;;;;;;5057871;28;20465;-82
2021/07/10 06:24:29;;;;;;;8.83;7.93;;;29.10;81.80;;;;;;5057426;28;20514;-83
2021/07/10 06:26:56;;;;;;;8.10;7.30;;;29.20;81.40;;;;;;5049036;28;20560;-83
2021/07/10 06:29:26;;;;;;;10.30;7.33;;;29.40;80.80;;;;;;5054020;28;20442;-83
2021/07/10 06:31:53;;;;;;;9.13;8.23;;;29.50;79.80;;;;;;5061123;28;20478;-84
2021/07/10 06:34:21;;;;;;;9.77;8.87;;;29.50;79.50;;;;;;5047833;28;20470;-85
2021/07/10 06:36:49;;;;;;;8.60;7.80;;;29.80;78.90;;;;;;5048134;28;20443;-84
2021/07/10 06:39:28;;;;;;;7.40;6.70;;;30.00;77.40;;;;;;5052585;28;20654;-82
2021/07/10 06:42:08;;;;;;;7.87;6.23;;;29.90;76.50;;;;;;5049006;28;20451;-79
2021/07/10 06:44:37;;;;;;;7.30;6.60;;;29.90;76.00;;;;;;5048196;28;20532;-82
2021/07/10 06:47:04;;;;;;;7.57;6.70;;;29.90;75.60;;;;;;5037773;28;20483;-83
2021/07/10 06:49:31;;;;;;;7.63;6.93;;;30.30;76.10;;;;;;5046191;28;20526;-83
2021/07/10 06:51:58;;;;;;;5.93;5.37;;;30.60;74.60;;;;;;5044267;28;20690;-80
2021/07/10 06:54:26;;;;;;;7.13;6.30;;;30.70;74.30;;;;;;5042456;28;20474;-83
2021/07/10 06:56:54;;;;;;;7.60;6.83;;;31.00;74.00;;;;;;5046666;28;20455;-81
2021/07/10 06:59:21;;;;;;;8.03;7.20;;;31.10;71.60;;;;;;5032916;28;20454;-82
2021/07/10 07:01:50;;;;;;;8.17;5.90;;;31.10;71.00;;;;;;5039958;28;20444;-81
2021/07/10 07:04:18;;;;;;;7.30;6.60;;;30.40;72.80;;;;;;5043210;28;20467;-82
2021/07/10 07:06:45;;;;;;;6.70;6.00;;;30.80;72.00;;;;;;5055971;28;20478;-82
2021/07/10 07:09:12;;;;;;;8.23;6.77;;;31.10;71.50;;;;;;5047795;28;20498;-83
2021/07/10 07:11:40;;;;;;;7.07;5.80;;;31.10;70.50;;;;;;5040136;28;20808;-81
2021/07/10 07:14:09;;;;;;;9.20;7.47;;;31.30;71.10;;;;;;5052647;28;20486;-80
2021/07/10 07:16:36;;;;;;;7.77;7.00;;;31.40;70.10;;;;;;5038122;28;20486;-81
2021/07/10 07:19:05;;;;;;;8.30;7.07;;;31.40;69.20;;;;;;5046839;28;20530;-81
2021/07/10 07:21:32;;;;;;;8.47;7.27;;;31.70;70.40;;;;;;5043348;28;20454;-80
2021/07/10 07:23:59;;;;;;;8.13;7.33;;;31.60;69.10;;;;;;5050499;28;20466;-84
2021/07/10 07:26:34;;;;;;;7.80;7.00;;;31.20;68.90;;;;;;5046181;28;20482;-84
2021/07/10 07:29:01;;;;;;;8.40;7.27;;;31.30;69.60;;;;;;5044262;28;20443;-82
2021/07/10 07:31:39;;;;;;;6.87;6.27;;;31.60;69.40;;;;;;5041067;28;20486;-82
2021/07/10 07:34:20;;;;;;;6.80;6.30;;;31.50;68.00;;;;;;5045348;28;20474;-82
2021/07/10 07:36:48;;;;;;;7.47;6.77;;;31.50;67.80;;;;;;5040153;28;20581;-82
2021/07/10 07:39:17;;;;;;;6.73;6.13;;;31.40;68.50;;;;;;5043271;28;20427;-80
2021/07/10 07:41:53;;;;;;;7.27;6.57;;;31.30;68.50;;;;;;5051106;28;20451;-82
2021/07/10 07:44:23;;;;;;;7.47;5.80;;;31.40;69.00;;;;;;5040242;28;20510;-81
2021/07/10 07:46:51;;;;;;;8.63;7.77;;;31.40;68.80;;;;;;5045982;28;20466;-80
2021/07/10 07:49:19;;;;;;;6.10;5.50;;;31.40;68.00;;;;;;5041741;28;20826;-82
2021/07/10 07:51:51;;;;;;;6.53;5.87;;;31.60;68.00;;;;;;5037150;28;20514;-82
2021/07/10 07:54:18;;;;;;;8.13;6.70;;;31.30;68.40;;;;;;5039100;28;20459;-80
2021/07/10 07:57:15;;;;;;;7.97;7.17;;;30.60;69.00;;;;;;5045915;28;20436;-82
2021/07/10 07:59:47;;;;;;;8.97;8.20;;;30.00;71.10;;;;;;4980011;28;20470;-80
2021/07/10 08:02:49;;;;;;;8.53;7.73;;;29.60;70.70;;;;;;5042807;28;20515;-82
2021/07/10 08:05:24;;;;;;;8.70;7.83;;;29.00;73.40;;;;;;5043976;28;20450;-81
2021/07/10 08:08:49;;;;;;;8.40;7.37;;;28.90;74.10;;;;;;5052304;28;20491;-82
2021/07/10 08:11:16;;;;;;;8.90;8.00;;;28.40;75.60;;;;;;5043402;28;20533;-82
2021/07/10 08:14:05;;;;;;;;;;;;;;;;;;;;;
2021/07/10 08:16:33;;;;;;;10.93;9.73;;;26.90;78.20;;;;;;5042984;28;20439;-83
2021/07/10 08:23:06;;;;;;;9.93;8.93;;;26.70;81.70;;;;;;5039420;28;20437;-80
2021/07/10 08:29:07;;;;;;;11.07;9.87;;;26.10;83.30;;;;;;5052695;28;20435;-81
2021/07/10 08:32:05;;;;;;;13.40;11.90;;;26.00;83.80;;;;;;5025256;28;20621;-80
2021/07/10 08:34:33;;;;;;;12.10;10.53;;;25.70;85.50;;;;;;5052431;28;20466;-80
2021/07/10 08:37:02;;;;;;;9.77;8.73;;;25.60;86.50;;;;;;5054668;28;20511;-81
2021/07/10 08:39:31;;;;;;;10.17;8.93;;;25.40;87.50;;;;;;5050569;28;20462;-81
2021/07/10 08:41:59;;;;;;;13.13;10.73;;;25.40;86.80;;;;;;5053938;28;20443;-79
2021/07/10 08:44:49;;;;;;;10.67;9.57;;;25.20;87.00;;;;;;5063703;28;20466;-80
2021/07/10 08:47:26;;;;;;;11.10;10.00;;;25.10;88.50;;;;;;5049851;28;20734;-82
2021/07/10 08:50:22;;;;;;;13.40;9.83;;;24.90;88.60;;;;;;5044832;28;20453;-80
2021/07/10 08:53:38;;;;;;;10.73;9.57;;;24.70;90.10;;;;;;5053426;28;20470;-81
2021/07/10 08:56:10;;;;;;;11.30;10.17;;;24.10;89.90;;;;;;5048927;28;20455;-82
2021/07/10 09:02:00;;;;;;;8.83;8.03;;;23.70;91.80;;;;;;4993899;28;20504;-82
2021/07/10 09:05:27;;;;;;;9.73;8.63;;;23.80;91.90;;;;;;5045598;28;20467;-83
2021/07/10 09:08:37;;;;;;;9.50;7.93;;;24.50;91.70;;;;;;5037027;28;20460;-81
2021/07/10 09:11:10;;;;;;;10.67;9.57;;;25.10;90.70;;;;;;5028583;28;20515;-81
2021/07/10 09:13:40;;;;;;;9.87;8.90;;;25.30;90.00;;;;;;5061826;28;20480;-82
2021/07/10 09:16:12;;;;;;;11.53;9.73;;;25.30;89.60;;;;;;5053560;28;20439;-81
2021/07/10 09:18:43;;;;;;;11.90;9.73;;;25.30;89.40;;;;;;5051910;28;20461;-81
2021/07/10 09:21:12;;;;;;;9.77;8.77;;;25.00;89.80;;;;;;5047905;28;20455;-82
2021/07/10 09:23:47;;;;;;;10.20;8.97;;;24.30;90.60;;;;;;5048649;28;20466;-82
2021/07/10 09:26:22;;;;;;;9.70;8.80;;;24.30;91.00;;;;;;5038985;28;20447;-82
2021/07/10 09:29:06;;;;;;;12.67;9.50;;;24.00;91.30;;;;;;5040181;28;20434;-81
2021/07/10 09:31:36;;;;;;;12.10;10.48;;;24.30;91.60;;;;;;5045483;28;20451;-82
2021/07/10 09:34:09;;;;;;;11.03;9.60;;;25.40;90.40;;;;;;5035956;28;20208;-82
2021/07/10 09:36:37;;;;;;;10.17;8.27;;;26.60;88.40;;;;;;5044631;28;20478;-82
2021/07/10 09:39:11;;;;;;;12.83;11.43;;;27.50;84.60;;;;;;5038333;28;20443;-81
2021/07/10 09:41:40;;;;;;;9.27;8.30;;;28.30;82.70;;;;;;5037155;28;20438;-82
2021/07/10 09:44:11;;;;;;;12.40;10.87;;;28.70;81.20;;;;;;5035505;28;20494;-79
2021/07/10 09:46:40;;;;;;;10.70;9.70;;;28.20;79.70;;;;;;5037691;28;20530;-83
2021/07/10 09:49:21;;;;;;;11.10;10.00;;;27.30;81.10;;;;;;5029071;28;20454;-81
2021/07/10 09:51:48;;;;;;;10.50;9.43;;;26.80;83.80;;;;;;5042183;28;20549;-79
2021/07/10 09:54:16;;;;;;;11.20;9.53;;;26.30;84.80;;;;;;5044252;28;20439;-82
2021/07/10 09:57:10;;;;;;;12.03;8.53;;;26.50;86.60;;;;;;5030358;28;20462;-83
2021/07/10 09:59:40;;;;;;;9.30;8.40;;;27.20;84.90;;;;;;5031130;28;20446;-83
2021/07/10 10:02:18;;;;;;;9.60;8.60;;;27.60;83.40;;;;;;5031781;28;20454;-82
2021/07/10 10:04:46;;;;;;;9.83;8.83;;;28.00;82.70;;;;;;5037878;28;20463;-80
2021/07/10 10:07:16;;;;;;;10.40;9.33;;;28.60;81.00;;;;;;5039229;28;20518;-81
2021/07/10 10:09:44;;;;;;;11.20;10.00;;;29.20;79.10;;;;;;5045623;28;20469;-81
2021/07/10 10:12:18;;;;;;;12.97;10.60;;;29.10;78.20;;;;;;5037941;28;20522;-83
2021/07/10 10:14:47;;;;;;;11.67;10.47;;;29.00;77.80;;;;;;5037687;28;20495;-82
2021/07/10 10:17:16;;;;;;;13.17;10.23;;;28.60;78.20;;;;;;5040119;28;20792;-83
2021/07/10 10:19:49;;;;;;;11.60;10.50;;;28.30;80.30;;;;;;5042394;28;20442;-83
2021/07/10 10:25:40;;;;;;;9.83;8.83;;;27.70;81.40;;;;;;5089429;27;20526;-68
2021/07/10 10:28:15;;;;;;;10.40;9.37;;;27.50;83.00;;;;;;5077650;28;20476;-71
2021/07/10 10:30:42;;;;;;;12.03;10.10;;;27.30;83.20;;;;;;5069640;28;20543;-67
2021/07/10 10:33:11;;;;;;;11.90;8.90;;;27.10;83.70;;;;;;5074427;28;20456;-68
2021/07/10 10:35:39;;;;;;;10.07;7.90;;;27.20;83.70;;;;;;5068179;28;20492;-70
2021/07/10 10:38:08;;;;;;;11.40;10.20;;;27.00;84.70;;;;;;5067550;28;20449;-68
2021/07/10 10:40:35;;;;;;;11.57;9.83;;;27.20;83.90;;;;;;5060472;28;21057;-70
2021/07/10 10:43:06;;;;;;;10.97;9.97;;;27.20;82.70;;;;;;5066055;28;20806;-68
2021/07/10 10:45:36;;;;;;;12.17;10.30;;;26.10;84.70;;;;;;5074135;28;20485;-69
2021/07/10 10:48:04;;;;;;;12.83;11.63;;;26.20;87.00;;;;;;5067718;28;20446;-71
2021/07/10 10:50:34;;;;;;;13.07;11.73;;;26.20;86.90;;;;;;5075219;28;20453;-71
2021/07/10 10:53:02;;;;;;;11.00;9.23;;;26.10;86.10;;;;;;5066231;28;20785;-69
2021/07/10 10:55:38;;;;;;;12.10;10.00;;;26.10;87.60;;;;;;5068853;28;20464;-68
2021/07/10 10:58:22;;;;;;;12.53;11.23;;;26.10;87.10;;;;;;5071856;28;20923;-68
2021/07/10 11:00:58;;;;;;;11.33;10.23;;;26.20;87.50;;;;;;5071126;28;20998;-70
2021/07/10 11:03:36;;;;;;;10.70;9.70;;;26.30;87.00;;;;;;5065681;28;20461;-69
2021/07/10 11:06:03;;;;;;;9.63;8.47;;;26.20;88.10;;;;;;5065952;28;20446;-69
2021/07/10 11:08:35;;;;;;;11.17;9.83;;;26.40;89.00;;;;;;5062010;28;20456;-70
2021/07/10 11:11:28;;;;;;;13.80;11.37;;;26.40;87.90;;;;;;5063846;28;20552;-70
2021/07/10 11:14:15;;;;;;;15.17;13.67;;;26.40;87.40;;;;;;5066743;28;20814;-67
2021/07/10 11:17:09;;;;;;;13.23;11.20;;;25.90;87.40;;;;;;5062319;28;20823;-68
2021/07/10 11:19:51;;;;;;;12.77;10.97;;;26.00;89.20;;;;;;5045195;28;20584;-66
2021/07/10 11:22:56;;;;;;;12.90;11.53;;;26.20;89.10;;;;;;5072735;28;20436;-66
2021/07/10 11:26:06;;;;;;;13.37;12.00;;;26.30;87.90;;;;;;5062810;28;20488;-71
2021/07/10 11:28:55;;;;;;;17.57;11.53;;;26.20;87.30;;;;;;5055065;28;20453;-68
2021/07/10 11:31:35;;;;;;;13.73;11.67;;;25.90;87.00;;;;;;5055158;28;20450;-70
2021/07/10 11:34:08;;;;;;;13.23;11.90;;;25.90;88.90;;;;;;5059623;28;20457;-69
2021/07/10 11:36:59;;;;;;;12.67;11.37;;;26.10;89.10;;;;;;5051878;28;20449;-67
2021/07/10 11:39:40;;;;;;;12.07;10.87;;;26.20;88.20;;;;;;5045988;28;20450;-70
2021/07/10 11:42:44;;;;;;;11.80;10.57;;;26.40;88.20;;;;;;5047068;28;20458;-71
2021/07/10 11:45:32;;;;;;;13.40;11.40;;;26.60;87.70;;;;;;5061107;28;20481;-67
2021/07/10 11:48:34;;;;;;;12.70;11.37;;;26.80;86.00;;;;;;5048704;28;20941;-71
2021/07/10 11:51:10;;;;;;;15.57;12.37;;;26.80;86.30;;;;;;5054794;28;20430;-69
2021/07/10 11:53:39;;;;;;;12.43;10.63;;;26.40;86.70;;;;;;5056890;28;20449;-69
2021/07/10 11:56:06;;;;;;;15.90;12.40;;;26.40;88.40;;;;;;5064036;28;20449;-69
2021/07/10 11:58:37;;;;;;;13.80;10.63;;;26.20;87.30;;;;;;5055408;28;20481;-69
2021/07/10 12:01:05;;;;;;;13.27;11.97;;;26.30;88.10;;;;;;5055754;28;20983;-67
2021/07/10 12:03:34;;;;;;;12.87;11.27;;;26.20;88.20;;;;;;5050772;28;20885;-69
2021/07/10 12:06:03;;;;;;;12.17;10.97;;;26.20;87.90;;;;;;5057050;28;20488;-68
2021/07/10 12:08:31;;;;;;;16.63;13.03;;;26.30;87.60;;;;;;5042261;28;20442;-68
2021/07/10 12:10:59;;;;;;;16.10;12.23;;;26.10;86.70;;;;;;5052406;28;20461;-67
2021/07/10 12:13:31;;;;;;;14.70;11.90;;;25.90;87.70;;;;;;5058697;28;20455;-69
2021/07/10 12:16:01;;;;;;;12.73;11.43;;;25.50;88.80;;;;;;5055646;28;20453;-71
2021/07/10 12:18:32;;;;;;;13.20;11.87;;;25.50;90.10;;;;;;5049486;28;20461;-68
2021/07/10 12:21:02;;;;;;;11.83;10.63;;;25.70;90.20;;;;;;5071775;28;20513;-70
2021/07/10 12:23:31;;;;;;;12.00;10.80;;;26.00;89.00;;;;;;5064766;28;20458;-69
2021/07/10 12:26:00;;;;;;;11.37;10.27;;;26.20;87.90;;;;;;5057277;28;20481;-69
2021/07/10 12:28:33;;;;;;;12.37;9.60;;;26.40;87.70;;;;;;5051056;28;20469;-67
2021/07/10 12:31:03;;;;;;;12.37;11.17;;;26.40;87.80;;;;;;5048362;28;20441;-69
2021/07/10 12:33:39;;;;;;;10.83;9.83;;;26.70;86.90;;;;;;5059424;28;20807;-70
2021/07/10 12:36:14;;;;;;;10.80;9.70;;;26.90;87.10;;;;;;5056631;28;20444;-70
2021/07/10 12:38:57;;;;;;;13.10;11.70;;;27.10;85.90;;;;;;5053036;28;20445;-67
2021/07/10 12:41:28;;;;;;;11.33;8.80;;;26.70;85.10;;;;;;5052400;28;20579;-68
2021/07/10 12:44:08;;;;;;;11.27;10.17;;;26.90;85.10;;;;;;5052474;28;20982;-68
2021/07/10 12:46:49;;;;;;;10.97;9.87;;;26.70;85.40;;;;;;5043142;28;20458;-68
2021/07/10 12:49:17;;;;;;;10.27;9.30;;;26.40;86.00;;;;;;5055327;28;20461;-68
2021/07/10 12:51:46;;;;;;;10.20;9.30;;;26.30;87.40;;;;;;5056073;28;20443;-69
2021/07/10 12:54:31;;;;;;;11.40;9.30;;;25.90;87.70;;;;;;5046022;28;20458;-67
2021/07/10 12:57:00;;;;;;;11.53;10.43;;;25.80;88.10;;;;;;5039248;28;20462;-69
2021/07/10 12:59:32;;;;;;;15.37;10.40;;;25.80;88.40;;;;;;5052447;28;20460;-69
2021/07/10 13:02:01;;;;;;;10.77;9.60;;;25.70;89.00;;;;;;5045662;28;20454;-69
2021/07/10 13:04:33;;;;;;;14.27;10.90;;;25.50;89.70;;;;;;5043441;28;20505;-68
2021/07/10 13:07:01;;;;;;;10.80;9.70;;;25.60;90.20;;;;;;5054230;28;20483;-70
2021/07/10 13:09:40;;;;;;;11.50;10.30;;;25.70;90.10;;;;;;5052644;28;20445;-70